FA27 weather

Ellsworth Field
Arcadia, Florida, United States

Public forecast

Using degrees Fahrenheit for public forecast. Weather courtesy of forecast.io.

Closest aviation weather report (METAR) to Ellsworth Field

Closest report is Charlotte County Airport, 20.6 nm (38.1 km) SSW. Retrieved 2020/06/07 04:53 UTC (57 minutes ago):

KPGD 070453Z AUTO 15008KT 10SM BKN110 26/26 A2995 RMK AO2 RAE45 SLP140 P0007 T02610256 403110233

Closest aviation forecast (TAF) to Ellsworth Field

Closest forecast is Charlotte County Airport, 20.6 nm (38.1 km) SSW. Retrieved 2020-06-07 00:30 UTC (5 hours ago):

TAF KPGD 062327Z 0700/0724 15007KT 6SM BR VCSH SCT030 TEMPO 0702/0706 4SM SHRA BKN010 FM070700 14007KT P6SM VCSH SCT020 OVC030 FM071000 15007KT P6SM SCT015 BKN040 FM071100 15007KT P6SM SCT015 OVC030